createdAt,value
2022-08-26T00:01:30.521Z,96432.25
2022-08-26T00:03:57.149Z,96506.72
2022-08-26T00:06:24.699Z,96439.91
2022-08-26T00:08:51.394Z,96466.56
2022-08-26T00:11:26.663Z,96263.28
2022-08-26T00:13:54.770Z,96393.53
2022-08-26T00:16:22.349Z,96386.28
2022-08-26T00:18:48.969Z,96440.78
2022-08-26T00:21:16.032Z,96312.47
2022-08-26T00:23:42.771Z,96356.22
2022-08-26T00:26:09.549Z,96209.25
2022-08-26T00:28:37.958Z,96339.47
2022-08-26T00:31:07.167Z,96448.44
2022-08-26T00:33:33.788Z,96459.31
2022-08-26T00:36:00.667Z,96405.66
2022-08-26T00:38:27.542Z,96191.31
2022-08-26T00:40:55.747Z,96476.88
2022-08-26T00:43:23.938Z,96341.09
2022-08-26T00:45:51.887Z,96409.88
2022-08-26T00:48:19.955Z,96410.69
2022-08-26T00:50:55.994Z,96437.97
2022-08-26T00:53:24.196Z,96440.78
2022-08-26T00:56:16.677Z,96468.84
2022-08-26T00:58:45.387Z,96444.66
2022-08-26T01:01:17.107Z,96309.03
2022-08-26T01:03:43.948Z,96459.56
2022-08-26T01:06:12.556Z,96381.03
2022-08-26T01:08:40.249Z,96437.16
2022-08-26T01:11:07.426Z,96474.72
2022-08-26T01:13:34.014Z,96438.75
2022-08-26T01:16:02.868Z,96437.97
2022-08-26T01:18:29.791Z,96440.16
2022-08-26T01:21:06.210Z,96475.47
2022-08-26T01:23:39.257Z,96438.75
2022-08-26T01:26:19.636Z,96391.31
2022-08-26T01:28:51.763Z,96443.78
2022-08-26T01:31:20.742Z,96401.81
2022-08-26T01:33:59.485Z,96465.00
2022-08-26T01:36:26.602Z,96403.22
2022-08-26T01:38:53.357Z,96477.31
2022-08-26T01:41:27.139Z,96485.97
2022-08-26T01:43:54.760Z,96381.41
2022-08-26T01:46:22.657Z,96441.97
2022-08-26T01:48:49.624Z,96436.31
2022-08-26T01:51:21.144Z,96413.28
2022-08-26T01:53:47.745Z,96417.34
2022-08-26T01:56:16.406Z,96441.97
2022-08-26T01:58:48.766Z,96412.50
2022-08-26T02:01:15.458Z,96447.22
2022-08-26T02:03:56.103Z,96191.75
2022-08-26T02:06:23.873Z,96398.78
2022-08-26T02:08:53.176Z,96449.44
2022-08-26T02:11:21.285Z,96265.38
2022-08-26T02:13:56.544Z,96335.78
2022-08-26T02:16:24.911Z,96380.00
2022-08-26T02:18:52.767Z,96411.47
2022-08-26T02:21:20.057Z,96396.13
2022-08-26T02:23:47.605Z,96384.03
2022-08-26T02:26:19.170Z,96447.22
2022-08-26T02:29:25.311Z,96406.03
2022-08-26T02:31:52.110Z,96462.97
2022-08-26T02:34:23.910Z,96373.75
2022-08-26T02:36:57.132Z,96363.59
2022-08-26T02:39:24.044Z,96381.19
2022-08-26T02:41:50.645Z,96372.72
2022-08-26T02:44:17.593Z,96403.19
2022-08-26T02:46:46.825Z,96386.84
2022-08-26T02:49:13.976Z,96248.38
2022-08-26T02:51:40.742Z,96435.28
2022-08-26T02:54:09.689Z,96389.25
2022-08-26T02:56:36.494Z,96384.59
2022-08-26T02:59:03.366Z,96412.84
2022-08-26T03:01:32.516Z,96385.59
2022-08-26T03:03:59.969Z,96411.22
2022-08-26T03:06:26.657Z,96301.81
2022-08-26T03:08:53.370Z,96454.00
2022-08-26T03:11:20.097Z,96318.75
2022-08-26T03:13:48.730Z,96394.69
2022-08-26T03:16:15.413Z,96420.94
2022-08-26T03:18:42.405Z,96454.84
2022-08-26T03:21:11.194Z,96351.66
2022-08-26T03:23:38.465Z,96323.19
2022-08-26T03:26:05.690Z,96387.81
2022-08-26T03:28:32.477Z,96440.31
2022-08-26T03:30:59.378Z,96416.06
2022-08-26T03:33:26.226Z,96374.28
2022-08-26T03:35:53.211Z,96388.44
2022-08-26T03:38:21.013Z,96341.97
2022-08-26T03:40:47.839Z,96335.53
2022-08-26T03:43:14.725Z,96336.50
2022-08-26T03:45:41.443Z,96409.63
2022-08-26T03:48:09.299Z,96215.19
2022-08-26T03:50:36.039Z,96393.78
2022-08-26T03:53:02.939Z,96379.88
2022-08-26T03:55:32.013Z,96422.47
2022-08-26T03:57:59.472Z,96431.38
2022-08-26T04:00:26.250Z,96361.50
2022-08-26T04:02:53.405Z,96318.72
2022-08-26T04:05:20.834Z,96336.28
2022-08-26T04:07:47.925Z,96376.66
2022-08-26T04:10:20.249Z,96415.03
2022-08-26T04:12:47.250Z,96353.44
2022-08-26T04:15:15.196Z,96295.34
2022-08-26T04:17:42.096Z,96398.13
2022-08-26T04:20:09.368Z,96333.28
2022-08-26T04:22:36.155Z,96350.25
2022-08-26T04:25:02.815Z,96343.00
2022-08-26T04:27:33.822Z,96235.09
2022-08-26T04:30:01.141Z,96317.59
2022-08-26T04:32:27.760Z,96341.81
2022-08-26T04:34:54.389Z,96362.84
2022-08-26T04:37:21.781Z,96350.53
2022-08-26T04:39:53.199Z,96354.41
2022-08-26T04:42:25.896Z,96303.13
2022-08-26T04:44:53.048Z,96156.97
2022-08-26T04:47:19.688Z,96363.09
2022-08-26T04:49:46.286Z,96292.31
2022-08-26T04:52:13.018Z,96203.38
2022-08-26T04:54:39.647Z,96402.81
2022-08-26T04:57:08.673Z,96359.44
2022-08-26T04:59:39.055Z,96402.44
2022-08-26T05:02:06.875Z,96396.56
2022-08-26T05:04:33.703Z,96352.19
2022-08-26T05:07:02.734Z,96342.47
2022-08-26T05:09:31.840Z,96335.41
2022-08-26T05:12:08.078Z,96334.78
2022-08-26T05:14:35.739Z,96429.75
2022-08-26T05:17:02.886Z,96336.41
2022-08-26T05:19:30.077Z,96291.03
2022-08-26T05:21:56.706Z,96282.09
2022-08-26T05:24:23.505Z,96278.88
2022-08-26T05:26:50.203Z,96377.13
2022-08-26T05:29:17.888Z,96319.63
2022-08-26T05:31:44.651Z,96444.53
2022-08-26T05:34:11.698Z,96362.78
2022-08-26T05:36:39.168Z,96421.38
2022-08-26T05:39:06.237Z,96173.19
2022-08-26T05:41:36.510Z,96335.06
2022-08-26T05:44:05.952Z,96370.41
2022-08-26T05:46:32.766Z,96324.41
2022-08-26T05:49:01.120Z,96314.75
2022-08-26T05:51:27.800Z,96393.94
2022-08-26T05:53:57.195Z,96342.06
2022-08-26T05:56:26.195Z,96340.69
2022-08-26T05:58:52.994Z,96397.78
2022-08-26T06:01:24.236Z,96422.72
2022-08-26T06:03:54.855Z,96387.38
2022-08-26T06:06:29.184Z,96438.09
2022-08-26T06:08:59.153Z,96292.88
2022-08-26T06:11:26.143Z,96219.25
2022-08-26T06:14:03.745Z,96420.06
2022-08-26T06:16:31.161Z,96400.25
2022-08-26T06:18:57.967Z,96186.41
2022-08-26T06:21:25.817Z,96224.75
2022-08-26T06:24:13.286Z,96407.72
2022-08-26T06:26:42.802Z,96346.19
2022-08-26T06:29:09.712Z,96379.69
2022-08-26T06:31:36.577Z,96335.06
2022-08-26T06:34:09.913Z,96371.41
2022-08-26T06:36:38.136Z,96271.09
2022-08-26T06:39:10.184Z,96392.69
2022-08-26T06:41:41.435Z,96362.06
2022-08-26T06:44:10.046Z,96248.97
2022-08-26T06:46:37.213Z,96346.13
2022-08-26T06:49:04.696Z,96367.81
2022-08-26T06:51:33.204Z,96316.34
2022-08-26T06:54:01.711Z,96379.38
2022-08-26T06:56:32.483Z,96418.69
2022-08-26T06:58:59.175Z,96365.84
2022-08-26T07:01:37.432Z,96358.31
2022-08-26T07:04:10.437Z,96188.09
2022-08-26T07:06:39.110Z,96371.09
2022-08-26T07:09:06.749Z,96336.25
2022-08-26T07:11:37.345Z,96348.19
2022-08-26T07:14:04.555Z,96124.75
2022-08-26T07:16:31.436Z,96400.81
2022-08-26T07:18:59.996Z,96361.53
2022-08-26T07:21:30.077Z,96392.13
2022-08-26T07:24:00.544Z,96370.44
2022-08-26T07:26:29.063Z,96292.69
2022-08-26T07:28:56.484Z,96325.16
2022-08-26T07:31:24.820Z,96335.78
2022-08-26T07:33:51.670Z,96361.38
2022-08-26T07:36:19.388Z,96335.78
2022-08-26T07:38:46.123Z,96361.63
2022-08-26T07:41:14.244Z,96340.03
2022-08-26T07:43:41.153Z,96385.31
2022-08-26T07:46:07.917Z,96336.25
2022-08-26T07:48:38.920Z,96149.63
2022-08-26T07:51:06.112Z,96333.25
2022-08-26T07:53:35.002Z,96332.19
2022-08-26T07:56:01.677Z,96258.81
2022-08-26T07:58:29.040Z,96343.44
2022-08-26T08:00:55.711Z,96312.78
2022-08-26T08:03:22.576Z,96370.72
2022-08-26T08:05:49.297Z,96354.44
2022-08-26T08:08:26.856Z,96374.34
2022-08-26T08:10:55.426Z,96173.97
2022-08-26T08:13:22.579Z,96283.75
2022-08-26T08:15:50.431Z,96328.06
2022-08-26T08:18:18.197Z,96224.09
2022-08-26T08:20:59.208Z,96360.47
2022-08-26T08:23:32.908Z,96360.28
2022-08-26T08:26:17.945Z,96377.13
2022-08-26T08:28:47.734Z,96285.94
2022-08-26T08:31:52.092Z,96369.97
2022-08-26T08:34:10.558Z,96281.00
2022-08-26T08:36:37.182Z,96313.25
2022-08-26T08:39:04.044Z,96358.09
2022-08-26T08:42:16.133Z,96371.94
2022-08-26T08:44:45.528Z,96283.19
2022-08-26T08:47:26.035Z,96277.34
2022-08-26T08:49:53.577Z,96313.34
2022-08-26T08:52:29.289Z,96366.34
2022-08-26T08:54:56.026Z,96289.38
2022-08-26T08:57:32.940Z,96302.94
2022-08-26T09:00:19.789Z,96337.03
2022-08-26T09:03:03.808Z,96297.59
2022-08-26T09:05:35.745Z,96185.75
2022-08-26T09:08:03.719Z,96317.53
2022-08-26T09:10:40.619Z,96352.88
2022-08-26T09:13:16.964Z,96276.75
2022-08-26T09:15:57.877Z,96353.94
2022-08-26T09:18:33.635Z,96357.38
2022-08-26T09:21:03.509Z,96236.75
2022-08-26T09:23:31.022Z,96216.53
2022-08-26T09:26:02.404Z,96305.63
2022-08-26T09:28:30.049Z,96222.31
2022-08-26T09:31:11.217Z,96211.66
2022-08-26T09:33:38.790Z,96322.84
2022-08-26T09:36:41.278Z,96302.31
2022-08-26T09:39:27.793Z,96243.47
2022-08-26T09:42:11.800Z,96288.16
2022-08-26T09:44:58.191Z,96335.75
2022-08-26T09:47:32.731Z,96181.75
2022-08-26T09:50:09.382Z,96337.84
2022-08-26T09:52:36.689Z,96232.75
2022-08-26T09:55:12.794Z,96221.53
2022-08-26T09:57:49.618Z,96236.47
2022-08-26T10:00:42.344Z,96284.88
2022-08-26T10:03:17.288Z,96199.25
2022-08-26T10:05:58.603Z,96247.16
2022-08-26T10:08:37.587Z,96285.22
2022-08-26T10:11:07.720Z,96215.31
2022-08-26T10:13:36.810Z,96225.97
2022-08-26T10:16:07.844Z,96331.06
2022-08-26T10:19:00.306Z,96218.81
2022-08-26T10:21:39.725Z,96238.53
2022-08-26T10:24:07.355Z,96247.53
2022-08-26T10:26:59.948Z,96323.59
2022-08-26T10:29:34.286Z,96269.28
2022-08-26T10:32:04.880Z,96321.72
2022-08-26T10:34:32.596Z,96317.75
2022-08-26T10:37:14.280Z,96233.41
2022-08-26T10:39:53.038Z,96319.00
2022-08-26T10:42:51.477Z,96295.53
2022-08-26T10:45:20.186Z,96281.69
2022-08-26T10:48:00.959Z,96289.28
2022-08-26T10:50:38.694Z,96224.44
2022-08-26T10:53:32.900Z,96221.63
2022-08-26T10:56:15.689Z,96244.75
2022-08-26T10:59:24.774Z,96294.28
2022-08-26T11:02:06.459Z,96216.16
2022-08-26T11:04:34.958Z,96287.22
2022-08-26T11:07:40.545Z,96280.84
2022-08-26T11:10:12.967Z,96228.75
2022-08-26T11:12:39.609Z,96281.13
2022-08-26T11:15:14.716Z,96253.16
2022-08-26T11:17:45.087Z,96286.66
2022-08-26T11:20:13.498Z,96288.28
2022-08-26T11:22:48.021Z,96282.66
2022-08-26T11:25:29.286Z,96221.16
2022-08-26T11:28:00.650Z,96294.78
2022-08-26T11:30:33.486Z,96295.78
2022-08-26T11:33:00.300Z,96161.97
2022-08-26T11:35:26.811Z,96288.69
2022-08-26T11:38:05.806Z,96273.25
2022-08-26T11:40:35.450Z,96225.06
2022-08-26T11:43:02.444Z,96269.19
2022-08-26T11:45:39.451Z,96265.19
2022-08-26T11:48:19.088Z,96234.34
2022-08-26T11:51:01.874Z,96231.28
2022-08-26T11:53:33.484Z,96251.81
2022-08-26T11:56:02.002Z,96231.94
2022-08-26T11:58:28.691Z,96208.94
2022-08-26T12:01:00.472Z,96201.53
2022-08-26T12:03:47.482Z,96174.97
2022-08-26T12:06:31.248Z,96231.50
2022-08-26T12:09:03.449Z,96258.06
2022-08-26T12:11:34.561Z,96259.19
2022-08-26T12:14:03.261Z,96189.88
2022-08-26T12:16:32.170Z,96206.56
2022-08-26T12:19:28.668Z,96275.81
2022-08-26T12:22:04.903Z,96058.66
2022-08-26T12:24:31.576Z,96209.16
2022-08-26T12:27:28.893Z,96271.44
2022-08-26T12:30:09.643Z,96269.75
2022-08-26T12:32:57.332Z,96250.31
2022-08-26T12:35:25.173Z,96222.97
2022-08-26T12:37:52.147Z,96227.34
2022-08-26T12:40:31.008Z,96283.75
2022-08-26T12:43:00.471Z,96199.69
2022-08-26T12:45:43.131Z,96052.59
2022-08-26T12:48:26.166Z,96224.63
2022-08-26T12:50:52.962Z,96262.88
2022-08-26T12:53:23.582Z,96220.94
2022-08-26T12:55:52.888Z,96069.19
2022-08-26T12:58:27.227Z,96256.44
2022-08-26T13:00:57.130Z,96244.94
2022-08-26T13:03:33.790Z,96175.88
2022-08-26T13:06:22.350Z,96226.63
2022-08-26T13:08:59.587Z,96171.09
2022-08-26T13:11:27.652Z,96215.63
2022-08-26T13:14:08.847Z,96195.41
2022-08-26T13:16:36.294Z,96136.75
2022-08-26T13:19:10.417Z,96172.06
2022-08-26T13:21:48.420Z,96187.38
2022-08-26T13:24:20.933Z,96038.63
2022-08-26T13:26:49.172Z,96123.06
2022-08-26T13:29:15.894Z,96142.25
2022-08-26T13:31:44.226Z,96191.47
2022-08-26T13:34:19.548Z,96024.91
2022-08-26T13:36:47.268Z,96166.91
2022-08-26T13:39:14.148Z,95967.84
2022-08-26T13:41:40.944Z,96178.13
2022-08-26T13:44:07.626Z,96178.22
2022-08-26T13:46:34.427Z,95965.03
2022-08-26T13:49:01.330Z,96140.97
2022-08-26T13:51:28.277Z,96111.28
2022-08-26T13:53:55.117Z,96162.00
2022-08-26T13:56:21.941Z,95962.13
2022-08-26T13:58:48.736Z,95996.91
2022-08-26T14:01:16.489Z,96141.09
2022-08-26T14:03:43.397Z,96082.75
2022-08-26T14:06:10.220Z,96156.91
2022-08-26T14:08:37.076Z,95985.69
2022-08-26T14:11:03.785Z,96109.97
2022-08-26T14:13:30.439Z,96158.88
2022-08-26T14:15:59.696Z,96098.38
2022-08-26T14:18:32.294Z,95971.47
2022-08-26T14:20:59.304Z,96144.09
2022-08-26T14:23:26.314Z,96186.38
2022-08-26T14:25:57.058Z,96226.22
2022-08-26T14:28:23.819Z,96221.97
2022-08-26T14:30:55.326Z,96086.53
2022-08-26T14:33:24.984Z,96163.63
2022-08-26T14:35:51.703Z,96047.06
2022-08-26T14:38:18.553Z,95959.16
2022-08-26T14:40:45.425Z,96185.84
2022-08-26T14:43:14.312Z,96133.22
2022-08-26T14:48:14.288Z,96144.97
2022-08-26T14:50:40.993Z,96068.94
2022-08-26T14:53:26.204Z,95969.88
2022-08-26T14:55:52.943Z,96029.94
2022-08-26T14:58:19.593Z,95995.91
2022-08-26T15:00:46.228Z,96085.22
2022-08-26T15:05:47.997Z,96178.47
2022-08-26T15:08:16.896Z,96126.09
2022-08-26T15:10:43.709Z,96171.00
2022-08-26T15:13:10.403Z,96153.47
2022-08-26T15:15:38.051Z,95998.03
2022-08-26T15:18:04.739Z,96161.97
2022-08-26T15:23:06.209Z,96131.16
2022-08-26T15:25:33.112Z,96144.19
2022-08-26T15:27:59.833Z,96083.38
2022-08-26T15:30:27.363Z,96137.59
2022-08-26T15:32:54.042Z,96121.13
2022-08-26T15:35:20.861Z,96082.41
2022-08-26T15:37:47.565Z,96016.53
2022-08-26T15:40:14.428Z,96112.72
2022-08-26T15:42:41.260Z,96120.72
2022-08-26T15:45:08.330Z,96138.81
2022-08-26T15:47:35.482Z,96151.28
2022-08-26T15:50:22.119Z,96096.53
2022-08-26T15:52:48.954Z,96093.09
2022-08-26T15:55:15.666Z,96040.19
2022-08-26T15:57:42.345Z,95990.50
2022-08-26T16:00:10.070Z,96156.88
2022-08-26T16:02:36.745Z,96054.53
2022-08-26T16:05:03.491Z,96133.78
2022-08-26T16:07:31.493Z,96111.44
2022-08-26T16:09:58.178Z,96143.38
2022-08-26T16:12:24.866Z,96109.03
2022-08-26T16:14:52.705Z,96089.91
2022-08-26T16:17:19.714Z,96092.59
2022-08-26T16:19:46.795Z,96095.53
2022-08-26T16:22:13.456Z,96045.03
2022-08-26T16:24:40.194Z,96115.47
2022-08-26T16:27:06.981Z,96077.75
2022-08-26T16:29:33.684Z,96037.56
2022-08-26T16:32:00.615Z,96112.84
2022-08-26T16:34:27.283Z,96103.78
2022-08-26T16:36:54.082Z,96139.41
2022-08-26T16:39:20.732Z,96030.38
2022-08-26T16:41:47.471Z,96018.69
2022-08-26T16:44:14.315Z,95952.75
2022-08-26T16:46:41.289Z,96066.56
2022-08-26T16:49:08.159Z,96048.72
2022-08-26T16:51:38.155Z,96055.63
2022-08-26T16:54:05.616Z,96108.56
2022-08-26T16:56:34.532Z,96030.53
2022-08-26T16:59:02.765Z,96091.94
2022-08-26T17:01:29.554Z,96011.16
2022-08-26T17:03:56.234Z,96134.09
2022-08-26T17:06:23.172Z,96075.72
2022-08-26T17:08:49.903Z,96057.28
2022-08-26T17:11:16.801Z,96119.31
2022-08-26T17:13:43.581Z,96012.59
2022-08-26T17:16:11.102Z,96110.03
2022-08-26T17:18:39.929Z,95975.56
2022-08-26T17:21:08.747Z,95866.13
2022-08-26T17:23:35.989Z,96083.63
2022-08-26T17:26:02.886Z,96056.81
2022-08-26T17:28:29.685Z,95937.00
2022-08-26T17:31:11.471Z,96086.97
2022-08-26T17:33:38.431Z,96101.78
2022-08-26T17:36:06.147Z,96115.50
2022-08-26T17:38:32.899Z,96100.47
2022-08-26T17:40:59.512Z,96134.28
2022-08-26T17:43:26.836Z,96124.28
2022-08-26T17:46:07.031Z,96007.91
2022-08-26T17:48:35.004Z,96143.88
2022-08-26T17:51:09.299Z,96107.94
2022-08-26T17:53:35.956Z,96134.47
2022-08-26T17:56:04.995Z,96073.13
2022-08-26T17:58:35.175Z,96095.31
2022-08-26T18:01:02.166Z,96108.69
2022-08-26T18:03:28.859Z,96093.19
2022-08-26T18:05:55.486Z,96144.66
2022-08-26T18:08:22.225Z,96117.53
2022-08-26T18:10:49.010Z,96077.63
2022-08-26T18:13:15.783Z,96131.16
2022-08-26T18:15:43.557Z,96123.53
2022-08-26T18:18:10.185Z,96140.84
2022-08-26T18:20:38.226Z,96085.84
2022-08-26T18:23:05.066Z,96139.41
2022-08-26T18:25:34.530Z,96116.72
2022-08-26T18:28:30.098Z,96173.38
2022-08-26T18:30:58.986Z,96107.94
2022-08-26T18:33:25.684Z,96121.34
2022-08-26T18:35:52.890Z,96124.22
2022-08-26T18:38:19.666Z,95984.44
2022-08-26T18:40:46.508Z,96122.72
2022-08-26T18:43:13.174Z,96142.19
2022-08-26T18:46:02.469Z,96177.19
2022-08-26T18:48:29.133Z,96142.91
2022-08-26T18:50:55.804Z,96067.59
2022-08-26T18:53:22.482Z,96118.84
2022-08-26T18:55:49.153Z,96040.22
2022-08-26T18:58:16.433Z,95918.63
2022-08-26T19:00:43.018Z,96111.63
2022-08-26T19:03:15.630Z,96030.44
2022-08-26T19:05:45.834Z,96056.56
2022-08-26T19:08:12.534Z,96116.16
2022-08-26T19:10:39.293Z,96027.19
2022-08-26T19:13:06.875Z,96002.00
2022-08-26T19:15:37.716Z,96126.13
2022-08-26T19:18:04.496Z,96129.69
2022-08-26T19:20:31.114Z,96129.88
2022-08-26T19:23:02.655Z,96100.66
2022-08-26T19:25:42.118Z,95895.13
2022-08-26T19:28:08.845Z,96150.75
2022-08-26T19:30:42.818Z,96153.84
2022-08-26T19:33:09.632Z,96077.09
2022-08-26T19:35:36.327Z,95941.41
2022-08-26T19:38:03.270Z,96134.38
2022-08-26T19:40:30.002Z,96213.16
2022-08-26T19:42:56.871Z,96140.72
2022-08-26T19:45:25.191Z,95925.19
2022-08-26T19:47:53.043Z,96207.31
2022-08-26T19:50:19.931Z,96157.09
2022-08-26T19:52:46.598Z,96095.22
2022-08-26T19:55:17.278Z,96158.34
2022-08-26T19:57:44.169Z,96070.75
2022-08-26T20:00:12.399Z,96125.38
2022-08-26T20:02:39.343Z,96154.25
2022-08-26T20:05:07.439Z,96196.31
2022-08-26T20:07:34.141Z,96134.97
2022-08-26T20:10:01.060Z,96195.75
2022-08-26T20:12:27.886Z,96217.84
2022-08-26T20:14:55.088Z,96196.75
2022-08-26T20:17:21.824Z,96152.25
2022-08-26T20:20:33.741Z,96160.47
2022-08-26T20:23:02.057Z,96127.72
2022-08-26T20:25:28.753Z,96211.56
2022-08-26T20:27:55.409Z,96148.75
2022-08-26T20:30:22.382Z,96144.03
2022-08-26T20:32:49.132Z,96194.69
2022-08-26T20:35:16.178Z,95976.38
2022-08-26T20:37:42.933Z,96046.44
2022-08-26T20:40:10.813Z,96214.66
2022-08-26T20:42:38.312Z,96199.84
2022-08-26T20:45:06.794Z,96191.63
2022-08-26T20:47:33.802Z,96174.13
2022-08-26T20:50:00.581Z,96211.22
2022-08-26T20:52:27.600Z,95915.31
2022-08-26T20:54:54.321Z,96205.88
2022-08-26T20:57:22.401Z,96175.38
2022-08-26T20:59:49.428Z,96111.06
2022-08-26T21:02:16.281Z,96123.94
2022-08-26T21:04:43.215Z,96225.38
2022-08-26T21:07:10.075Z,96153.03
2022-08-26T21:09:36.724Z,96163.91
2022-08-26T21:12:05.356Z,96186.41
2022-08-26T21:14:32.043Z,96051.44
2022-08-26T21:16:58.768Z,96174.25
2022-08-26T21:19:25.475Z,96065.00
2022-08-26T21:21:52.239Z,96098.22
2022-08-26T21:24:18.946Z,96190.91
2022-08-26T21:26:45.666Z,95978.31
2022-08-26T21:29:13.646Z,96112.72
2022-08-26T21:31:45.707Z,96133.53
2022-08-26T21:34:14.473Z,96068.22
2022-08-26T21:36:41.123Z,96012.63
2022-08-26T21:39:11.467Z,96182.22
2022-08-26T21:41:38.651Z,96131.59
2022-08-26T21:44:05.335Z,96165.78
2022-08-26T21:46:32.034Z,96145.47
2022-08-26T21:49:00.278Z,96139.16
2022-08-26T21:51:29.127Z,96097.06
2022-08-26T21:53:56.660Z,96161.97
2022-08-26T21:56:24.289Z,96200.63
2022-08-26T21:58:52.567Z,96094.44
2022-08-26T22:01:21.485Z,96139.47
2022-08-26T22:03:48.953Z,96149.03
2022-08-26T22:06:20.684Z,96125.44
2022-08-26T22:08:47.809Z,96100.56
2022-08-26T22:11:14.840Z,95872.78
2022-08-26T22:13:42.274Z,95935.63
2022-08-26T22:16:09.633Z,96114.03
2022-08-26T22:18:36.780Z,96102.22
2022-08-26T22:21:06.042Z,96108.84
2022-08-26T22:23:32.800Z,96096.06
2022-08-26T22:25:59.505Z,96148.00
2022-08-26T22:28:26.205Z,96123.28
2022-08-26T22:30:53.039Z,95902.03
2022-08-26T22:33:19.836Z,96096.13
2022-08-26T22:35:48.649Z,96046.88
2022-08-26T22:38:15.560Z,96064.38
2022-08-26T22:40:47.567Z,96078.84
2022-08-26T22:43:14.358Z,96111.88
2022-08-26T22:45:42.817Z,96115.88
2022-08-26T22:48:10.108Z,95990.25
2022-08-26T22:50:37.093Z,96069.66
2022-08-26T22:53:03.923Z,96119.88
2022-08-26T22:55:30.580Z,96131.63
2022-08-26T22:57:57.633Z,96126.78
2022-08-26T23:00:31.869Z,96054.88
2022-08-26T23:02:59.802Z,96097.06
2022-08-26T23:05:26.625Z,96076.16
2022-08-26T23:07:54.083Z,96073.13
2022-08-26T23:10:20.956Z,95850.44
2022-08-26T23:12:47.646Z,95888.88
2022-08-26T23:15:16.420Z,96139.50
2022-08-26T23:17:45.183Z,95960.84
2022-08-26T23:20:12.837Z,96032.03
2022-08-26T23:22:39.830Z,96082.50
2022-08-26T23:25:08.355Z,96109.69
2022-08-26T23:27:37.880Z,95889.34
2022-08-26T23:30:05.986Z,96156.38
2022-08-26T23:32:32.796Z,96070.31
2022-08-26T23:34:59.686Z,96145.22
2022-08-26T23:37:33.888Z,96037.06
2022-08-26T23:40:06.535Z,96001.31
2022-08-26T23:42:36.167Z,96104.84
2022-08-26T23:45:04.412Z,96065.44
2022-08-26T23:47:31.097Z,96064.84
2022-08-26T23:49:58.043Z,96135.63
2022-08-26T23:52:43.151Z,96135.03
2022-08-26T23:55:10.890Z,96151.94
2022-08-26T23:57:37.639Z,96035.28
